Thunder radar more information blitzortung!


Radar de pluja more information rain snow radar


Visita la nostra xarxa de llocs de meteo:

Template documentation
and downloads

And another site



No particular awareness of the weather is required.    There are no Weather-warnings

Pagina Historial Weather Underground text

Diari Resum Setembre 3, 2017 Unitats:  Imperial    Mètric   Tant
« Previous Dia
SegĂźent Dia »
Diari Setmana Mensual Anual Personalitzada
  Maxima: Minima: Media:
Temperatura: 83.5 °F 59.9 °F 73 °F
Punt de rosada: 62.1 °F 50.7 °F 56.1 °F
Humitat: 87 % 36 % 58 %
Wind Speed: 9.8 mph 0 mph 2.9 mph
RĂ fegues de vent: 10 mph - -
Vent:- - SSE
Pression baro: 30.1 in 29.8 in -
Precipitacions: 0 in    
Historical Graphs
 
 
Dades de taula per Setembre 3, 2017
Temps Temperatura Punt de rosada Pression baro Vent Wind Speed RĂ fegues de vent Humitat Rainfall Rate (Hourly)
00:01 67.5 °F 51.6 °F 30.1 in NNW 4.6 mph 4.6 mph 57 % 0 in
00:05 61.2 °F 50.9 °F 30 in Calm   2 mph 69 % 0 in
00:06 67.5 °F 51.6 °F 30.1 in NE 3.5 mph 3.5 mph 57 % 0 in
00:11 67.5 °F 51.6 °F 30.1 in NNE 4.3 mph 4.3 mph 57 % 0 in
00:15 61.2 °F 51.3 °F 30 in Calm     70 % 0 in
00:25 61.2 °F 51.3 °F 30 in Calm     70 % 0 in
00:35 61 °F 51.4 °F 30 in Calm     71 % 0 in
00:45 61 °F 51.4 °F 30 in Calm     71 % 0 in
00:55 61 °F 51.4 °F 30 in Calm     71 % 0 in
01:05 61.2 °F 52.2 °F 30 in Calm     72 % 0 in
01:15 61.2 °F 51.6 °F 30 in Calm   1 mph 71 % 0 in
01:25 61 °F 52 °F 30 in Calm   1 mph 72 % 0 in
01:35 61 °F 51.4 °F 30 in Calm   1 mph 71 % 0 in
01:45 61 °F 52 °F 30 in Calm   1 mph 72 % 0 in
01:55 61 °F 52 °F 30 in Calm   2 mph 72 % 0 in
02:05 60.8 °F 51.6 °F 30 in Calm   1 mph 72 % 0 in
02:15 60.3 °F 50.7 °F 30 in ENE 1 mph 2 mph 71 % 0 in
02:25 60.1 °F 51.4 °F 30 in Calm   1 mph 73 % 0 in
02:35 59.9 °F 51.3 °F 30 in Calm     73 % 0 in
02:45 60.1 °F 51.4 °F 30 in WSW 1 mph 1 mph 73 % 0 in
02:55 60.1 °F 51.8 °F 30 in Calm     74 % 0 in
03:05 60.6 °F 52 °F 30 in WSW 1 mph 1 mph 73 % 0 in
03:15 60.8 °F 52.2 °F 30 in Calm     73 % 0 in
03:25 61.2 °F 52.2 °F 30 in SW 1 mph 1 mph 72 % 0 in
03:35 61.3 °F 52.2 °F 30 in SW 2 mph 2 mph 72 % 0 in
03:45 62.2 °F 53.4 °F 30 in Calm   1 mph 73 % 0 in
03:55 62.2 °F 52.7 °F 30 in SSW 1 mph 2 mph 71 % 0 in
04:05 63.1 °F 53.2 °F 30 in SSW 1 mph 1 mph 70 % 0 in
04:15 63.9 °F 53.4 °F 30 in SW 1 mph 1 mph 69 % 0 in
04:25 64.8 °F 54 °F 30 in Calm   2 mph 68 % 0 in
04:35 65.5 °F 54.7 °F 30 in East 1 mph 1 mph 68 % 0 in
04:45 65.7 °F 54.3 °F 30 in NNE 1 mph 4 mph 67 % 0 in
04:55 66 °F 54.7 °F 30 in West 2 mph 2 mph 67 % 0 in
05:05 67.1 °F 55.4 °F 30 in SW 1 mph 3 mph 66 % 0 in
05:15 67.3 °F 55 °F 30 in SW 1 mph 2 mph 65 % 0 in
05:25 68 °F 54.9 °F 30 in SW 2 mph 2 mph 63 % 0 in
05:35 69.1 °F 55.9 °F 30 in NNE 1 mph 2 mph 63 % 0 in
05:45 69.1 °F 55.6 °F 30 in NW 2 mph 3 mph 62 % 0 in
05:55 69.6 °F 55.9 °F 30 in WSW 1 mph 3 mph 62 % 0 in
06:05 70.7 °F 56.7 °F 30 in SSW 2 mph 3 mph 61 % 0 in
06:20 71.4 °F 57.4 °F 30 in SSE 2 mph 2 mph 61 % 0 in
11:22 71.6 °F 57 °F 30 in ESE 1.2 mph 1.6 mph 60 % 0 in
11:23 71.6 °F 57 °F 30 in SE 3.1 mph 3.1 mph 60 % 0 in
11:24 71.4 °F 56.8 °F 30 in SE 3.5 mph 3.5 mph 60 % 0 in
11:29 72.1 °F 57.6 °F 30 in WSW 2.6 mph 2.6 mph 60 % 0 in
11:34 72.5 °F 57.4 °F 30 in SSE 4.7 mph 4.7 mph 59 % 0 in
11:39 72.9 °F 57.2 °F 30 in East 3.1 mph 3.1 mph 58 % 0 in
11:44 72.7 °F 57 °F 30 in ENE 3.5 mph 3.5 mph 58 % 0 in
11:49 72.7 °F 56.7 °F 30 in ENE 2.6 mph 2.6 mph 57 % 0 in
11:54 72.9 °F 56.1 °F 30 in ESE 3.5 mph 3.5 mph 56 % 0 in
11:59 73.2 °F 56.7 °F 30 in WSW 3.6 mph 3.6 mph 56 % 0 in
12:04 74.3 °F 55.6 °F 30 in SSE 3.5 mph 3.5 mph 52 % 0 in
12:09 74.3 °F 55.6 °F 30 in North 2.3 mph 2.3 mph 52 % 0 in
12:14 74.7 °F 55.2 °F 30 in ENE 1.4 mph 1.4 mph 51 % 0 in
12:19 75.2 °F 55.2 °F 30 in Calm     50 % 0 in
12:24 75.4 °F 54.9 °F 30 in SSW 3.5 mph 3.5 mph 49 % 0 in
12:29 75.4 °F 54.9 °F 30 in SW 2.3 mph 2.3 mph 49 % 0 in
12:34 75.4 °F 54.3 °F 30 in SW 4.6 mph 4.6 mph 48 % 0 in
12:39 75.4 °F 53.8 °F 30 in SSE 3.5 mph 3.5 mph 47 % 0 in
12:44 74.8 °F 53.2 °F 30 in South 4.6 mph 4.6 mph 47 % 0 in
12:49 74.8 °F 53.8 °F 30 in SW 4.6 mph 4.6 mph 48 % 0 in
12:54 75.4 °F 53.8 °F 30 in South 2.4 mph 2.4 mph 47 % 0 in
12:59 75 °F 53.4 °F 30 in SE 4.6 mph 4.6 mph 47 % 0 in
13:04 74.8 °F 52.7 °F 30 in South 4.6 mph 4.6 mph 46 % 0 in
13:09 74.8 °F 52.7 °F 29.9 in SE 5.8 mph 5.8 mph 46 % 0 in
13:14 75.2 °F 53.1 °F 29.9 in WSW 3.5 mph 3.5 mph 46 % 0 in
13:19 75.4 °F 52.5 °F 29.9 in SSW 3.5 mph 3.5 mph 45 % 0 in
13:24 76.1 °F 53.2 °F 29.9 in WSW 4.6 mph 4.6 mph 45 % 0 in
13:29 76.5 °F 52.3 °F 29.9 in SW 1.2 mph 1.2 mph 43 % 0 in
13:34 77 °F 52.9 °F 29.9 in SSW 3.5 mph 3.5 mph 43 % 0 in
13:39 77.2 °F 52.9 °F 29.9 in WSW 3.8 mph 3.8 mph 43 % 0 in
13:44 77.4 °F 53.1 °F 29.9 in South 8.1 mph 8.1 mph 43 % 0 in
13:49 77.4 °F 52.5 °F 29.9 in SW 4.6 mph 4.6 mph 42 % 0 in
13:54 77.2 °F 52.3 °F 29.9 in WSW 4 mph 4 mph 42 % 0 in
13:59 77.4 °F 51.8 °F 29.9 in WSW 4.6 mph 4.6 mph 41 % 0 in
14:04 77.9 °F 52.3 °F 29.9 in SSW 2.3 mph 2.3 mph 41 % 0 in
14:09 78.1 °F 52.5 °F 29.9 in WSW 3.5 mph 3.5 mph 41 % 0 in
14:14 78.6 °F 52.9 °F 29.9 in SW 2.3 mph 2.3 mph 41 % 0 in
14:19 79.2 °F 53.4 °F 29.9 in SSW 3.5 mph 3.5 mph 41 % 0 in
14:24 79.9 °F 54.1 °F 29.9 in SSW 6.2 mph 6.2 mph 41 % 0 in
14:29 78.8 °F 53.1 °F 29.9 in West 2.3 mph 2.3 mph 41 % 0 in
14:34 79 °F 52.5 °F 29.9 in West 5.6 mph 5.6 mph 40 % 0 in
14:39 79.2 °F 52.2 °F 29.9 in WSW 2.3 mph 2.3 mph 39 % 0 in
14:44 79.3 °F 52.2 °F 29.9 in SW 2.4 mph 2.4 mph 39 % 0 in
14:49 79.7 °F 53.2 °F 29.9 in SSW 3.5 mph 3.5 mph 40 % 0 in
14:54 79.9 °F 53.4 °F 29.9 in SW 3.5 mph 3.5 mph 40 % 0 in
14:59 80.2 °F 53.1 °F 29.9 in WSW 2.3 mph 2.3 mph 39 % 0 in
15:04 80.2 °F 52.3 °F 29.9 in SSE 2.3 mph 2.3 mph 38 % 0 in
15:09 79.7 °F 51.8 °F 29.9 in East 2.6 mph 2.6 mph 38 % 0 in
15:14 80.4 °F 52.5 °F 29.9 in WSW 3.5 mph 3.5 mph 38 % 0 in
15:19 81.3 °F 52.5 °F 29.9 in WSW 2.3 mph 2.3 mph 37 % 0 in
15:24 81.1 °F 51.6 °F 29.9 in SSE 4.6 mph 4.6 mph 36 % 0 in
15:29 81.1 °F 51.6 °F 29.9 in ESE 3.8 mph 3.8 mph 36 % 0 in
15:34 81.9 °F 53.1 °F 29.9 in SSE 5.8 mph 5.8 mph 37 % 0 in
15:39 82.9 °F 54 °F 29.9 in West 3.5 mph 3.5 mph 37 % 0 in
15:44 82.9 °F 54 °F 29.9 in SW 2.9 mph 2.9 mph 37 % 0 in
15:49 83.1 °F 54.1 °F 29.9 in WSW 4.7 mph 4.7 mph 37 % 0 in
15:54 82.9 °F 54 °F 29.9 in SSW 4.7 mph 4.7 mph 37 % 0 in
15:59 82.2 °F 53.4 °F 29.9 in WSW 4 mph 4 mph 37 % 0 in
16:04 82.2 °F 53.4 °F 29.9 in SW 4.9 mph 4.9 mph 37 % 0 in
16:09 82.4 °F 52.9 °F 29.9 in South 3.5 mph 3.5 mph 36 % 0 in
16:14 82.4 °F 52.9 °F 29.9 in WSW 4.6 mph 4.6 mph 36 % 0 in
16:19 82.2 °F 53.4 °F 29.9 in WSW 3.8 mph 4.3 mph 37 % 0 in
16:24 82.2 °F 54.1 °F 29.9 in SSW 4.6 mph 4.6 mph 38 % 0 in
16:25 82.4 °F 54.1 °F 29.9 in South 4.6 mph 4.6 mph 38 % 0 in
16:30 81.5 °F 53.4 °F 29.9 in SW 4 mph 4 mph 38 % 0 in
16:35 81.1 °F 53.8 °F 29.9 in SSW 6.9 mph 6.9 mph 39 % 0 in
16:40 81.7 °F 54.3 °F 29.9 in South 5.8 mph 5.8 mph 39 % 0 in
16:45 81.5 °F 54.1 °F 29.9 in SW 5.8 mph 5.8 mph 39 % 0 in
16:50 82.2 °F 54.9 °F 29.9 in WSW 3 mph 6 mph 39 % 0 in
16:55 82.9 °F 54.7 °F 29.9 in WSW 2 mph 4 mph 38 % 0 in
17:00 83.5 °F 55.2 °F 29.9 in WSW 5.8 mph 5.8 mph 38 % 0 in
17:05 83.3 °F 54.3 °F 29.9 in SW 5.8 mph 5.8 mph 37 % 0 in
17:10 83.5 °F 54.5 °F 29.9 in SSW 3 mph 7 mph 37 % 0 in
17:15 82.2 °F 54.1 °F 29.9 in SSE 2.4 mph 2.4 mph 38 % 0 in
17:20 81.7 °F 55 °F 29.9 in South 4.6 mph 4.6 mph 40 % 0 in
17:25 82.2 °F 54.9 °F 29.8 in East 4.6 mph 4.6 mph 39 % 0 in
17:30 82.6 °F 55 °F 29.8 in South 3.8 mph 3.8 mph 39 % 0 in
17:35 82 °F 54.7 °F 29.8 in SSE 3.5 mph 3.5 mph 39 % 0 in
17:40 82.4 °F 55 °F 29.8 in West 3.5 mph 3.5 mph 39 % 0 in
17:45 82.9 °F 55.4 °F 29.8 in SW 2.3 mph 2.3 mph 39 % 0 in
17:50 83.3 °F 55.8 °F 29.8 in South 3 mph 6 mph 39 % 0 in
17:55 82.8 °F 55.2 °F 29.8 in SW 5 mph 9 mph 39 % 0 in
18:00 83.3 °F 56.5 °F 29.8 in SW 4.6 mph 4.6 mph 40 % 0 in
18:05 83.3 °F 55.8 °F 29.8 in West 3.5 mph 3.8 mph 39 % 0 in
18:10 83.1 °F 56.3 °F 29.8 in SW 3 mph 7 mph 40 % 0 in
18:15 83.3 °F 56.5 °F 29.8 in SW 2 mph 6 mph 40 % 0 in
18:20 82 °F 55.9 °F 29.8 in SSW 6.9 mph 6.9 mph 41 % 0 in
18:25 82.4 °F 56.3 °F 29.9 in SSW 2 mph 5 mph 41 % 0 in
18:30 82.2 °F 56.8 °F 29.9 in SSW 2 mph 5 mph 42 % 0 in
18:35 81.5 °F 56.1 °F 29.9 in WSW 4.6 mph 4.6 mph 42 % 0 in
18:40 80.8 °F 56.1 °F 29.9 in SW 5 mph 7 mph 43 % 0 in
18:45 80.4 °F 56.5 °F 29.9 in SSW 2 mph 5 mph 44 % 0 in
18:50 81 °F 57 °F 29.9 in SSW 2 mph 6 mph 44 % 0 in
18:55 80.8 °F 57.6 °F 29.9 in SSW 5.8 mph 5.8 mph 45 % 0 in
19:00 80.6 °F 57.4 °F 29.9 in West 3.1 mph 3.1 mph 45 % 0 in
19:05 80.2 °F 57.6 °F 29.9 in SW 3 mph 6 mph 46 % 0 in
19:10 79.7 °F 57.7 °F 29.9 in SW 2 mph 5 mph 47 % 0 in
19:15 79.3 °F 57.4 °F 29.9 in SW 1 mph 5 mph 47 % 0 in
19:20 79 °F 57.6 °F 29.9 in WSW 3.5 mph 3.5 mph 48 % 0 in
19:25 78.8 °F 57.4 °F 29.9 in West 1 mph 3 mph 48 % 0 in
19:30 77.9 °F 57.2 °F 29.9 in NNW 2 mph 5 mph 49 % 0 in
19:35 77 °F 57.4 °F 29.9 in East 2 mph 6 mph 51 % 0 in
19:40 76.5 °F 58.6 °F 29.9 in ESE 8.1 mph 8.1 mph 54 % 0 in
19:45 75.7 °F 58.5 °F 29.9 in East 5 mph 8 mph 55 % 0 in
19:50 75 °F 59.2 °F 29.9 in East 8.1 mph 8.1 mph 58 % 0 in
19:55 74.7 °F 59.9 °F 29.9 in ESE 9.8 mph 9.8 mph 60 % 0 in
20:00 74.5 °F 59.7 °F 29.9 in ESE 5 mph 10 mph 60 % 0 in
20:05 74.3 °F 59.5 °F 29.9 in East 3 mph 6 mph 60 % 0 in
20:10 74.1 °F 59.7 °F 29.9 in East 5 mph 9 mph 61 % 0 in
20:15 73.6 °F 60.6 °F 29.9 in East 5 mph 8 mph 64 % 0 in
20:20 73.4 °F 61 °F 29.9 in East 3 mph 8 mph 65 % 0 in
20:25 73 °F 61 °F 29.9 in East 5 mph 6 mph 66 % 0 in
20:30 73 °F 61 °F 29.9 in East 5 mph 8 mph 66 % 0 in
20:35 72.7 °F 61.2 °F 29.9 in East 5 mph 7 mph 67 % 0 in
20:40 72.5 °F 61.3 °F 29.9 in East 8.1 mph 8.1 mph 68 % 0 in
20:45 72.5 °F 61.3 °F 29.9 in East 2 mph 6 mph 68 % 0 in
20:50 72.5 °F 61.3 °F 29.9 in ENE 3 mph 5 mph 68 % 0 in
20:55 72.3 °F 61.2 °F 29.9 in ENE 2 mph 6 mph 68 % 0 in
21:00 72.1 °F 60.6 °F 29.9 in ENE 2 mph 5 mph 67 % 0 in
21:05 71.8 °F 60.3 °F 29.9 in ENE 5 mph 7 mph 67 % 0 in
21:06 71.6 °F 60.4 °F 29.9 in East 5.8 mph 5.8 mph 68 % 0 in
21:10 67.6 °F 60.4 °F 29.9 in Calm     78 % 0 in
21:11 71.6 °F 60.4 °F 29.9 in East 5.8 mph 5.8 mph 68 % 0 in
21:16 71.4 °F 60.6 °F 29.9 in ENE 4.6 mph 4.6 mph 69 % 0 in
21:20 67.3 °F 60.4 °F 29.9 in East 1 mph 2 mph 79 % 0 in
21:21 71.2 °F 61 °F 29.9 in ENE 3.5 mph 3.6 mph 70 % 0 in
21:26 71.2 °F 60.4 °F 29.9 in North 4.6 mph 4.6 mph 69 % 0 in
21:30 66.9 °F 60.4 °F 29.9 in ENE 1 mph 2 mph 80 % 0 in
21:31 71.1 °F 60.8 °F 29.9 in NE 4.6 mph 4.6 mph 70 % 0 in
21:36 70.9 °F 60.6 °F 29.9 in ENE 3.5 mph 3.6 mph 70 % 0 in
21:40 66.7 °F 60.6 °F 29.8 in NE 1 mph 2 mph 81 % 0 in
21:41 70.7 °F 60.4 °F 29.9 in ESE 2.3 mph 2.3 mph 70 % 0 in
21:46 70.7 °F 60.4 °F 29.9 in ENE 4.7 mph 4.7 mph 70 % 0 in
21:50 66.7 °F 61.2 °F 29.8 in Calm   1 mph 82 % 0 in
21:51 70.5 °F 60.3 °F 29.9 in NE 3.5 mph 3.5 mph 70 % 0 in
21:56 70.3 °F 60.1 °F 29.9 in ENE 4.6 mph 4.6 mph 70 % 0 in
22:00 66.7 °F 61.2 °F 29.9 in NNE 1 mph 1 mph 82 % 0 in
22:01 70.2 °F 60.3 °F 29.9 in East 4 mph 4 mph 71 % 0 in
22:06 70 °F 60.1 °F 29.9 in ESE 4.6 mph 4.6 mph 71 % 0 in
22:10 66.7 °F 61.3 °F 29.9 in Calm     83 % 0 in
22:11 69.8 °F 60.1 °F 29.9 in NNE 3.5 mph 3.5 mph 71 % 0 in
22:16 69.8 °F 60.1 °F 29.9 in East 3.5 mph 3.5 mph 71 % 0 in
22:20 66.7 °F 61.3 °F 29.9 in West 1 mph 2 mph 83 % 0 in
22:21 69.8 °F 60.4 °F 29.9 in ENE 3.5 mph 3.5 mph 72 % 0 in
22:26 69.8 °F 60.1 °F 29.9 in NNE 3.6 mph 3.6 mph 71 % 0 in
22:30 66.6 °F 61.5 °F 29.9 in Calm   1 mph 84 % 0 in
22:31 69.6 °F 60.3 °F 29.9 in North 3.5 mph 3.5 mph 72 % 0 in
22:36 69.6 °F 60.3 °F 29.9 in ESE 4 mph 4 mph 72 % 0 in
22:40 66.7 °F 62.1 °F 29.9 in NNE 1 mph 2 mph 85 % 0 in
22:41 69.4 °F 60.4 °F 29.9 in East 2.3 mph 2.3 mph 73 % 0 in
22:46 69.4 °F 60.1 °F 29.9 in ENE 2.6 mph 2.6 mph 72 % 0 in
22:50 66.6 °F 61.9 °F 29.9 in Calm   2 mph 85 % 0 in
22:51 69.3 °F 59.7 °F 29.9 in East 4.6 mph 4.6 mph 72 % 0 in
22:56 69.1 °F 60.1 °F 29.9 in East 2.4 mph 2.4 mph 73 % 0 in
23:00 66.2 °F 61.5 °F 29.8 in Calm   2 mph 85 % 0 in
23:01 69.1 °F 60.1 °F 29.9 in ENE 2.3 mph 2.3 mph 73 % 0 in
23:06 68.9 °F 59.9 °F 29.9 in NNE 3.6 mph 3.6 mph 73 % 0 in
23:10 66.2 °F 61.9 °F 29.9 in SSW 1 mph 2 mph 86 % 0 in
23:11 68.9 °F 59.9 °F 29.9 in NNE 3.5 mph 3.5 mph 73 % 0 in
23:16 68.9 °F 59.9 °F 29.9 in NE 3.5 mph 3.5 mph 73 % 0 in
23:20 66.2 °F 61.5 °F 29.9 in North 2 mph 2 mph 85 % 0 in
23:21 68.9 °F 59.9 °F 29.9 in East 2.3 mph 2.4 mph 73 % 0 in
23:26 68.7 °F 59.7 °F 29.9 in NE 2.3 mph 2.3 mph 73 % 0 in
23:30 66 °F 61.3 °F 29.9 in WNW 2 mph 2 mph 85 % 0 in
23:31 68.7 °F 59.7 °F 29.9 in NNE 3.5 mph 3.5 mph 73 % 0 in
23:36 68.7 °F 60.1 °F 29.9 in NE 3.5 mph 3.5 mph 74 % 0 in
23:40 66 °F 62.1 °F 29.9 in Calm   1 mph 87 % 0 in
23:41 68.7 °F 60.1 °F 29.9 in NE 2.3 mph 2.3 mph 74 % 0 in
23:46 68.7 °F 60.1 °F 29.9 in ESE 2.3 mph 2.3 mph 74 % 0 in
23:50 66 °F 62.1 °F 29.9 in NW 1 mph 2 mph 87 % 0 in
23:51 68.5 °F 59.9 °F 29.9 in East 2.3 mph 2.3 mph 74 % 0 in
23:56 68.5 °F 59.9 °F 29.9 in South 1.2 mph   74 % 0 in
Meteo Sesrovires
Elogis d' Weather Underground - 3.5 mb

Guio original per  Jim McMurry - jmcmurry@mwt.net Adaptat per a la plantilla per  Wim van der Kuil - Leuven-Template.eu

Trobareu la nostra informacio del temps tambe a:

Weather Underground

AWEKAS